Time;durP1;ratioP1;P1;durP2;ratioP2;P2;SDS_P1;SDS_P2;PMS_P1;PMS_P2;Temp;Humidity;BMP_temperature;BMP_pressure;BME280_temperature;BME280_humidity;BME280_pressure;Samples;Min_cycle;Max_cycle;Signal;HPM_P1;HPM_P2
2022/10/02 06:49:50;;;;;;;;;;;11.70;99.90;;;;;;6185647;22;19919;31
2022/10/02 06:55:59;;;;;;;;;;;11.80;99.90;;;;;;6216022;23;19915;-76
2022/10/02 06:58:46;;;;;;;;;;;11.90;99.90;;;;;;6189112;23;20346;-75
2022/10/02 07:01:30;;;;;;;;;;;12.00;99.90;;;;;;6187550;23;19955;-75
2022/10/02 07:04:18;;;;;;;;;;;12.00;99.90;;;;;;6162296;23;19920;-75
2022/10/02 08:20:52;;;;;;;;;;;;;;;;;;;;;
2022/10/02 08:33:01;;;;;;;;;;;15.40;99.90;;;;;;6285406;22;19923;-77
2022/10/02 09:00:13;;;;;;;;;;;15.20;99.90;;;;;;6151184;23;19915;-73
2022/10/02 09:03:00;;;;;;;;;;;15.30;99.90;;;;;;6183965;23;19916;-77
2022/10/02 09:05:48;;;;;;;;;;;15.40;99.90;;;;;;6203647;22;20008;-75
2022/10/02 09:12:42;;;;;;;;;;;;;;;;;;;;;
2022/10/02 09:15:50;;;;;;;;;;;15.80;99.90;;;;;;6067091;23;20329;-74
2022/10/02 09:18:52;;;;;;;;;;;;;;;;;;;;;
2022/10/02 09:32:20;;;;;;;;;;;;;;;;;;;;;
2022/10/02 09:46:25;;;;;;;;;;;15.90;99.90;;;;;;6183605;23;19982;-77
2022/10/02 10:00:26;;;;;;;;;;;;;;;;;;;;;
2022/10/02 10:03:37;;;;;;;;;;;16.10;99.90;;;;;;6052945;23;19923;-74
2022/10/02 10:06:05;;;;;;;;;;;16.20;99.90;;;;;;6129661;23;19921;-74
2022/10/02 10:08:44;;;;;;;;;;;16.30;99.90;;;;;;6214113;22;19922;-75
2022/10/02 10:11:29;;;;;;;;;;;16.40;99.90;;;;;;6251119;22;20322;-75
2022/10/02 10:13:54;;;;;;;;;;;16.50;99.90;;;;;;6250339;22;19990;-75
2022/10/02 10:16:32;;;;;;;;;;;16.60;99.90;;;;;;6250514;22;19943;-75
2022/10/02 10:19:16;;;;;;;;;;;16.60;99.90;;;;;;6250857;22;20041;-74
2022/10/02 10:22:02;;;;;;;;;;;16.70;99.90;;;;;;6225061;22;19964;-74
2022/10/02 10:24:48;;;;;;;;;;;16.80;99.90;;;;;;6224216;22;19920;-77
2022/10/02 10:27:33;;;;;;;;;;;16.80;99.90;;;;;;6226726;22;20318;-79
2022/10/02 10:30:05;;;;;;;;;;;16.70;99.90;;;;;;6228751;22;19921;-79
2022/10/02 10:33:05;;;;;;;;;;;16.50;99.90;;;;;;6250270;22;19953;-85
2022/10/02 10:58:53;;;;;;;;;;;16.70;99.90;;;;;;6276657;22;19914;-77
2022/10/02 11:05:14;;;;;;;;;;;17.00;99.90;;;;;;6213583;23;19930;-79
2022/10/02 11:08:14;;;;;;;;;;;;;;;;;;;;;
2022/10/02 11:11:01;;;;;;;;;;;16.40;99.90;;;;;;6188636;23;20381;-79
2022/10/02 11:13:30;;;;;;;;;;;16.30;99.90;;;;;;6188582;23;19923;-76
2022/10/02 12:36:44;;;;;;;;;;;16.30;99.90;;;;;;6245218;23;19915;-78
2022/10/02 12:43:16;;;;;;;;;;;16.30;99.90;;;;;;6188615;23;19947;-79
2022/10/02 12:52:49;;;;;;;;;;;16.40;99.90;;;;;;6079141;23;20367;-80
2022/10/02 12:56:00;;;;;;;;;;;;;;;;;;;;;
2022/10/02 12:58:55;;;;;;;;;;;16.40;99.90;;;;;;6132392;23;20374;-79
2022/10/02 13:05:25;;;;;;;;;;;16.30;99.90;;;;;;6143434;23;20275;-77
2022/10/02 13:08:13;;;;;;;;;;;16.20;99.90;;;;;;6189661;23;19919;-77
2022/10/02 13:14:31;;;;;;;;;;;;;;;;;;;;;
2022/10/02 13:17:16;;;;;;;;;;;16.30;99.90;;;;;;6113945;23;19924;-79
2022/10/02 13:20:00;;;;;;;;;;;16.40;99.90;;;;;;6129066;23;19917;-77
2022/10/02 13:23:00;;;;;;;;;;;;;;;;;;;;;
2022/10/02 13:26:10;;;;;;;;;;;16.40;99.90;;;;;;6128730;23;19920;-76
2022/10/02 13:29:42;;;;;;;;;;;16.30;99.90;;;;;;6051074;23;19925;-75
2022/10/02 13:39:18;;;;;;;;;;;16.10;99.90;;;;;;6095261;23;19916;-78
2022/10/02 13:42:23;;;;;;;;;;;;;;;;;;;;;
2022/10/02 13:48:33;;;;;;;;;;;16.20;99.90;;;;;;6217418;23;19916;-82
2022/10/02 13:51:04;;;;;;;;;;;16.20;99.90;;;;;;6165331;23;19916;-76
2022/10/02 13:54:10;;;;;;;;;;;16.10;99.90;;;;;;6165025;23;19986;-78
2022/10/02 13:57:11;;;;;;;;;;;16.00;99.90;;;;;;6171735;23;20274;-80
2022/10/02 13:59:59;;;;;;;;;;;15.90;99.90;;;;;;6159676;23;19966;-79
2022/10/02 14:03:07;;;;;;;;;;;15.90;99.90;;;;;;6205880;23;19916;-82
2022/10/02 14:05:44;;;;;;;;;;;15.90;99.90;;;;;;6158845;23;19924;-77
2022/10/02 14:08:28;;;;;;;;;;;15.90;99.90;;;;;;6208529;23;20331;-81
2022/10/02 14:11:11;;;;;;;;;;;15.90;99.90;;;;;;6208965;23;20394;-79
2022/10/02 14:13:47;;;;;;;;;;;15.90;99.90;;;;;;6211942;22;19938;-78
2022/10/02 14:16:22;;;;;;;;;;;16.00;99.90;;;;;;6224336;22;19915;-80
2022/10/02 14:19:04;;;;;;;;;;;15.90;99.90;;;;;;6223984;22;20368;-80
2022/10/02 14:21:35;;;;;;;;;;;15.80;99.90;;;;;;6249076;22;19916;-77
2022/10/02 14:27:46;;;;;;;;;;;15.70;99.90;;;;;;6281931;22;19923;-80
2022/10/02 14:30:35;;;;;;;;;;;15.50;99.90;;;;;;6223084;22;20287;-77
2022/10/02 18:05:40;;;;;;;;;;;12.60;99.90;;;;;;6284703;22;21300;-77
2022/10/02 18:08:08;;;;;;;;;;;12.40;99.90;;;;;;6242401;22;19926;-80
2022/10/02 18:10:50;;;;;;;;;;;12.40;99.90;;;;;;6243769;23;19916;-81
2022/10/02 18:13:41;;;;;;;;;;;12.30;99.90;;;;;;6245458;23;19926;-78
2022/10/02 18:20:17;;;;;;;;;;;12.20;99.90;;;;;;6231120;22;19957;-81
2022/10/02 18:26:49;;;;;;;;;;;12.20;99.90;;;;;;6197470;22;19918;-82
2022/10/02 18:29:33;;;;;;;;;;;12.00;99.90;;;;;;6220747;23;19926;-79
2022/10/02 18:42:15;;;;;;;;;;;12.10;99.90;;;;;;6145409;23;19912;-74
2022/10/02 18:45:12;;;;;;;;;;;12.10;99.90;;;;;;6163793;23;19928;-77
2022/10/02 18:58:08;;;;;;;;;;;11.90;99.90;;;;;;6224037;22;19942;-76
2022/10/02 19:00:54;;;;;;;;;;;11.70;99.90;;;;;;6223723;22;19930;-72
2022/10/02 19:03:33;;;;;;;;;;;11.80;99.90;;;;;;6192273;22;20301;-74
2022/10/02 19:06:08;;;;;;;;;;;11.80;99.90;;;;;;6223482;22;19919;-75
2022/10/02 19:08:53;;;;;;;;;;;11.70;99.90;;;;;;6248760;22;19919;-75
2022/10/02 19:11:52;;;;;;;;;;;;;;;;;;;;;
2022/10/02 19:14:33;;;;;;;;;;;11.70;99.90;;;;;;6221935;22;19922;-76
2022/10/02 19:20:35;;;;;;;;;;;11.70;99.90;;;;;;6276419;22;20245;-78
2022/10/02 19:23:02;;;;;;;;;;;11.70;99.90;;;;;;6248531;22;19965;-75
2022/10/02 19:25:28;;;;;;;;;;;11.70;99.90;;;;;;6223139;22;19919;-76
